Time;durP1;ratioP1;P1;durP2;ratioP2;P2;SDS_P1;SDS_P2;PMS_P1;PMS_P2;Temp;Humidity;BMP_temperature;BMP_pressure;BME280_temperature;BME280_humidity;BME280_pressure;Samples;Min_cycle;Max_cycle;Signal;HPM_P1;HPM_P2
2023/05/10 00:01:16;;;;;;;7.90;3.80;;;;;;;16.02;49.68;97462.84;4937260;29;20035;-76
2023/05/10 00:03:41;;;;;;;7.15;3.65;;;;;;;15.98;50.78;97467.28;4956239;28;20155;-75
2023/05/10 00:06:06;;;;;;;6.32;4.20;;;;;;;15.68;52.36;97467.75;4940466;28;20057;-75
2023/05/10 00:08:32;;;;;;;7.10;3.88;;;;;;;15.44;52.25;97462.41;4973834;28;20026;-76
2023/05/10 00:10:57;;;;;;;5.18;3.85;;;;;;;15.12;55.29;97463.06;4975317;28;20068;-76
2023/05/10 00:13:23;;;;;;;4.78;3.90;;;;;;;14.83;57.24;97469.69;4962658;28;20111;-75
2023/05/10 00:15:48;;;;;;;5.63;4.10;;;;;;;14.83;57.25;97459.66;4938055;28;20404;-75
2023/05/10 00:18:13;;;;;;;7.82;4.45;;;;;;;14.54;59.96;97458.88;4979153;28;20110;-75
2023/05/10 00:20:39;;;;;;;4.90;4.32;;;;;;;14.67;59.59;97463.66;4974837;28;20039;-75
2023/05/10 00:23:04;;;;;;;3.92;3.53;;;;;;;15.14;58.30;97450.06;4955977;28;20506;-76
2023/05/10 00:25:30;;;;;;;7.50;4.28;;;;;;;15.43;55.86;97454.50;4927618;28;20113;-77
2023/05/10 00:27:56;;;;;;;4.63;4.00;;;;;;;15.48;55.45;97457.19;4963762;28;20023;-76
2023/05/10 00:30:22;;;;;;;6.38;4.05;;;;;;;15.53;54.88;97448.97;4949853;29;20065;-76
2023/05/10 00:32:49;;;;;;;5.20;4.00;;;;;;;15.58;54.98;97452.44;4946429;28;20030;-75
2023/05/10 00:35:15;;;;;;;6.90;4.22;;;;;;;15.56;54.45;97448.41;4939968;28;20039;-75
2023/05/10 00:37:40;;;;;;;7.13;3.90;;;;;;;15.51;54.05;97445.75;4940010;28;20026;-74
2023/05/10 00:40:06;;;;;;;5.90;4.28;;;;;;;15.49;54.54;97442.53;4924023;28;20568;-75
2023/05/10 00:42:32;;;;;;;4.78;3.75;;;;;;;15.56;54.57;97454.63;4955809;28;20130;-75
2023/05/10 00:44:57;;;;;;;5.32;4.32;;;;;;;15.42;55.10;97447.50;4972806;28;20069;-75
2023/05/10 00:47:23;;;;;;;4.95;3.90;;;;;;;15.45;54.86;97436.88;4946113;29;20031;-75
2023/05/10 00:49:49;;;;;;;4.40;4.00;;;;;;;15.39;54.82;97437.22;4936246;28;20134;-75
2023/05/10 00:52:15;;;;;;;6.75;3.53;;;;;;;15.46;55.90;97437.69;4946481;29;20071;-75
2023/05/10 00:54:40;;;;;;;5.15;3.80;;;;;;;15.22;56.49;97437.72;4935775;28;20039;-74
2023/05/10 00:57:05;;;;;;;8.00;4.07;;;;;;;15.45;55.60;97441.50;4939697;28;20085;-75
2023/05/10 00:59:31;;;;;;;5.13;4.25;;;;;;;15.12;56.79;97430.53;4955575;28;20049;-74
2023/05/10 01:01:57;;;;;;;6.88;4.40;;;;;;;14.91;58.10;97437.31;4939404;28;20027;-74
2023/05/10 01:04:25;;;;;;;5.97;4.40;;;;;;;14.86;59.43;97439.28;4956493;28;20054;-76
2023/05/10 01:06:51;;;;;;;6.97;4.68;;;;;;;15.00;61.18;97432.88;4959751;28;20473;-75
2023/05/10 01:09:17;;;;;;;5.32;4.30;;;;;;;15.18;61.43;97434.78;4927812;28;20188;-75
2023/05/10 01:11:43;;;;;;;5.65;4.70;;;;;;;15.31;60.17;97429.75;4943718;28;20023;-76
2023/05/10 01:14:09;;;;;;;8.10;5.00;;;;;;;15.12;60.79;97437.88;4961527;28;20134;-75
2023/05/10 01:16:37;;;;;;;5.57;4.25;;;;;;;15.08;61.63;97437.63;4940285;29;20042;-77
2023/05/10 01:19:06;;;;;;;5.88;4.95;;;;;;;15.06;59.87;97434.41;4940414;29;20122;-76
2023/05/10 01:21:31;;;;;;;5.40;4.90;;;;;;;15.00;61.32;97443.72;4951514;28;20081;-77
2023/05/10 01:24:25;;;;;;;6.00;5.13;;;;;;;14.91;60.99;97445.44;4959229;28;20038;-76
2023/05/10 01:27:30;;;;;;;6.75;5.07;;;;;;;15.14;63.43;97441.91;4941804;28;20089;-76
2023/05/10 01:30:12;;;;;;;5.18;4.68;;;;;;;14.82;64.57;97439.06;4952976;28;20039;-76
2023/05/10 01:32:50;;;;;;;7.25;4.93;;;;;;;14.73;63.98;97440.78;4924034;29;20039;-77
2023/05/10 01:35:21;;;;;;;5.15;4.65;;;;;;;14.53;64.06;97441.84;4941333;28;20041;-74
2023/05/10 01:37:51;;;;;;;6.20;5.18;;;;;;;14.55;64.41;97438.84;4943115;28;20031;-77
2023/05/10 01:40:27;;;;;;;6.90;4.78;;;;;;;14.53;66.12;97443.75;4962050;28;20134;-76
2023/05/10 01:42:55;;;;;;;6.00;5.40;;;;;;;14.72;65.21;97449.22;4965572;28;20039;-75
2023/05/10 01:45:25;;;;;;;5.70;4.65;;;;;;;14.60;64.42;97441.50;4942947;28;20480;-76
2023/05/10 01:47:58;;;;;;;7.85;4.78;;;;;;;14.44;64.00;97445.47;4943286;28;20041;-76
2023/05/10 01:50:28;;;;;;;7.00;5.78;;;;;;;14.71;64.33;97448.41;4951435;29;20056;-75
2023/05/10 01:52:55;;;;;;;5.60;5.10;;;;;;;14.53;65.74;97446.47;4938751;28;20042;-75
2023/05/10 01:55:21;;;;;;;6.15;5.55;;;;;;;14.49;66.73;97450.84;4942591;28;20464;-75
2023/05/10 01:57:48;;;;;;;6.18;5.32;;;;;;;14.34;66.88;97442.88;4942767;28;20037;-75
2023/05/10 02:00:14;;;;;;;12.32;6.40;;;;;;;14.13;68.28;97452.25;4952959;28;20023;-75
2023/05/10 02:02:42;;;;;;;7.07;6.38;;;;;;;14.20;69.04;97452.72;4958778;28;20045;-75
2023/05/10 02:05:08;;;;;;;7.25;6.53;;;;;;;14.17;69.27;97450.56;4958497;28;20121;-75
2023/05/10 02:07:37;;;;;;;7.50;6.88;;;;;;;14.40;69.03;97441.69;4942584;28;20061;-75
2023/05/10 02:10:04;;;;;;;7.07;6.38;;;;;;;14.28;67.99;97450.19;4943192;28;20019;-75
2023/05/10 02:12:31;;;;;;;9.65;7.03;;;;;;;14.09;69.79;97445.78;4943068;28;20555;-75
2023/05/10 02:14:57;;;;;;;12.20;7.72;;;;;;;14.14;71.37;97453.88;4951019;28;20029;-76
2023/05/10 02:17:23;;;;;;;8.98;8.15;;;;;;;14.19;71.54;97451.13;4943272;28;20129;-76
2023/05/10 02:19:49;;;;;;;9.35;8.55;;;;;;;14.25;71.54;97449.97;4967189;28;20038;-76
2023/05/10 02:22:15;;;;;;;12.52;11.63;;;;;;;14.08;71.90;97455.00;4942709;28;20038;-76
2023/05/10 02:24:41;;;;;;;14.90;13.77;;;;;;;14.12;71.88;97446.00;4926431;28;20380;-76
2023/05/10 02:27:06;;;;;;;19.17;17.70;;;;;;;13.91;74.23;97446.50;4945906;28;20078;-76
2023/05/10 02:29:33;;;;;;;25.58;24.00;;;;;;;13.96;74.47;97449.13;4983576;28;20019;-76
2023/05/10 02:31:59;;;;;;;33.70;31.90;;;;;;;14.45;74.82;97444.38;4954545;29;20493;-75
2023/05/10 02:34:28;;;;;;;32.75;31.05;;;;;;;14.05;74.23;97450.16;4933700;28;20030;-76
2023/05/10 02:36:53;;;;;;;37.47;35.55;;;;;;;14.01;75.86;97449.91;4942603;28;20045;-75
2023/05/10 02:39:21;;;;;;;46.50;44.15;;;;;;;13.98;76.08;97444.28;4967285;28;20022;-76
2023/05/10 02:41:48;;;;;;;47.80;45.40;;;;;;;13.97;77.13;97453.47;4954372;29;20035;-77
2023/05/10 02:44:17;;;;;;;47.78;45.28;;;;;;;13.95;75.37;97455.66;4934216;28;20055;-75
2023/05/10 02:46:43;;;;;;;53.97;51.28;;;;;;;14.13;76.83;97446.84;4958137;28;20036;-76
2023/05/10 02:49:08;;;;;;;55.95;53.10;;;;;;;14.09;77.34;97451.22;4958037;28;20077;-75
2023/05/10 02:51:36;;;;;;;55.15;52.25;;;;;;;13.97;77.39;97448.06;4938865;29;20422;-74
2023/05/10 02:54:09;;;;;;;62.40;59.30;;;;;;;13.73;79.42;97453.41;4941807;28;20058;-76
2023/05/10 02:56:36;;;;;;;71.35;67.85;;;;;;;13.48;80.37;97443.59;4942072;28;20374;-76
2023/05/10 02:59:01;;;;;;;73.63;69.85;;;;;;;13.36;81.29;97453.94;4958023;28;20034;-77
2023/05/10 03:01:27;;;;;;;73.75;70.00;;;;;;;13.65;79.54;97443.97;4960953;28;20436;-76
2023/05/10 03:03:52;;;;;;;75.90;71.93;;;;;;;13.25;81.93;97451.56;4980994;28;20058;-76
2023/05/10 03:06:18;;;;;;;79.40;74.95;;;;;;;13.36;82.84;97442.31;4941813;28;20491;-76
2023/05/10 03:08:44;;;;;;;80.75;76.13;;;;;;;13.47;83.38;97458.19;4957721;28;20447;-76
2023/05/10 03:11:29;;;;;;;84.00;79.38;;;;;;;13.28;83.86;97456.44;4989519;28;20130;-75
2023/05/10 03:14:17;;;;;;;81.35;76.80;;;;;;;13.16;85.35;97448.66;4960744;28;20538;-74
2023/05/10 03:16:46;;;;;;;79.88;75.15;;;;;;;13.34;87.13;97450.72;4969652;28;20487;-75
2023/05/10 03:19:18;;;;;;;79.78;75.03;;;;;;;13.43;85.25;97453.63;4941392;28;20030;-75
2023/05/10 03:21:47;;;;;;;78.43;74.13;;;;;;;13.48;87.33;97450.88;4925520;28;20513;-76
2023/05/10 03:24:15;;;;;;;79.97;75.35;;;;;;;13.56;87.34;97458.41;4928988;28;20023;-77
2023/05/10 03:26:43;;;;;;;76.43;72.13;;;;;;;13.56;87.95;97442.97;4962131;28;20035;-76
2023/05/10 03:29:14;;;;;;;74.30;70.22;;;;;;;13.86;86.59;97450.84;4938648;29;20399;-75
2023/05/10 03:31:40;;;;;;;72.68;68.60;;;;;;;13.63;87.10;97456.97;4925237;28;20041;-75
2023/05/10 03:34:06;;;;;;;71.20;67.30;;;;;;;13.74;87.41;97450.44;4972880;28;20027;-75
2023/05/10 03:36:32;;;;;;;72.93;68.72;;;;;;;13.48;88.01;97451.69;4928355;28;20393;-75
2023/05/10 03:38:58;;;;;;;72.22;67.80;;;;;;;13.74;87.07;97449.63;4941192;28;20031;-75
2023/05/10 03:41:25;;;;;;;71.18;67.28;;;;;;;13.76;88.19;97447.44;4940853;28;20039;-74
2023/05/10 03:43:50;;;;;;;70.05;66.15;;;;;;;13.64;88.18;97449.69;4968130;28;20027;-75
2023/05/10 03:46:16;;;;;;;70.65;66.60;;;;;;;13.56;89.42;97453.78;4957146;28;20039;-75
2023/05/10 03:48:41;;;;;;;69.93;65.72;;;;;;;13.69;88.28;97450.47;4956781;28;20026;-75
2023/05/10 03:51:07;;;;;;;67.47;63.53;;;;;;;13.83;88.64;97454.13;4928272;28;20114;-76
2023/05/10 03:53:32;;;;;;;65.10;61.50;;;;;;;13.85;88.40;97460.06;4968489;28;20491;-76
2023/05/10 03:55:58;;;;;;;68.13;64.43;;;;;;;13.76;88.81;97456.38;4937655;29;20035;-76
2023/05/10 03:58:23;;;;;;;67.82;64.13;;;;;;;13.85;88.61;97462.78;4944482;28;20031;-76
2023/05/10 04:00:48;;;;;;;66.45;62.65;;;;;;;13.76;88.39;97464.47;4939956;28;20489;-76
2023/05/10 04:03:14;;;;;;;65.18;61.28;;;;;;;13.72;88.38;97468.03;4928183;28;20105;-75
2023/05/10 04:05:40;;;;;;;62.92;59.53;;;;;;;13.97;88.11;97469.72;4962249;28;20492;-75
2023/05/10 04:08:06;;;;;;;65.55;61.63;;;;;;;13.27;89.98;97463.72;4956246;28;20529;-76
2023/05/10 04:10:32;;;;;;;64.57;60.75;;;;;;;13.47;90.51;97479.81;4971383;28;20061;-76
2023/05/10 04:12:57;;;;;;;68.03;63.67;;;;;;;13.49;89.94;97483.06;4944169;28;20492;-76
2023/05/10 04:15:23;;;;;;;67.47;63.28;;;;;;;13.45;89.66;97484.72;4978028;28;20377;-76
2023/05/10 04:17:48;;;;;;;64.00;60.20;;;;;;;13.43;90.60;97478.78;4956354;28;20373;-77
2023/05/10 04:20:14;;;;;;;61.08;57.50;;;;;;;13.43;90.06;97492.28;4955554;28;20045;-76
2023/05/10 04:22:39;;;;;;;58.05;54.80;;;;;;;13.32;90.74;97488.03;4928027;28;20070;-77
2023/05/10 04:25:05;;;;;;;58.75;55.55;;;;;;;13.45;90.08;97489.31;4973120;28;20507;-77
2023/05/10 04:27:31;;;;;;;59.70;56.70;;;;;;;13.22;90.95;97496.19;4936749;29;20477;-77
2023/05/10 04:29:57;;;;;;;60.42;57.53;;;;;;;13.29;90.71;97496.69;4939608;28;20066;-78
2023/05/10 04:32:22;;;;;;;58.78;56.08;;;;;;;13.20;90.24;97492.97;4970390;28;20031;-77
2023/05/10 04:34:47;;;;;;;56.33;53.70;;;;;;;13.26;91.07;97496.44;4941156;28;20043;-77
2023/05/10 04:37:13;;;;;;;58.38;55.67;;;;;;;13.18;90.56;97510.56;4982983;28;20038;-78
2023/05/10 04:39:38;;;;;;;57.20;54.60;;;;;;;13.22;89.95;97495.38;4953138;28;20050;-77
2023/05/10 04:42:05;;;;;;;56.05;53.25;;;;;;;12.99;90.29;97502.22;4923686;29;20105;-77
2023/05/10 04:44:33;;;;;;;56.30;53.72;;;;;;;12.99;89.96;97507.63;4948485;28;20027;-77
2023/05/10 04:47:00;;;;;;;59.10;56.40;;;;;;;13.15;90.19;97507.31;4972380;28;20023;-76
2023/05/10 04:49:25;;;;;;;57.67;55.08;;;;;;;13.05;89.83;97511.91;4956329;28;20038;-76
2023/05/10 04:51:50;;;;;;;56.20;53.70;;;;;;;13.03;90.56;97520.31;4937040;29;20114;-77
2023/05/10 04:54:16;;;;;;;56.75;54.25;;;;;;;13.02;90.60;97517.91;4939431;28;20061;-77
2023/05/10 04:56:41;;;;;;;55.22;52.83;;;;;;;12.99;90.33;97521.16;4971938;28;20067;-76
2023/05/10 04:59:07;;;;;;;55.33;52.83;;;;;;;12.94;90.70;97518.44;4954456;28;20038;-76
2023/05/10 05:01:32;;;;;;;56.53;53.92;;;;;;;13.01;89.95;97537.88;4955905;28;20050;-77
2023/05/10 05:03:58;;;;;;;57.75;55.05;;;;;;;12.94;89.88;97523.84;4921343;28;20503;-76
2023/05/10 05:06:24;;;;;;;54.95;52.45;;;;;;;12.88;90.16;97536.56;4955701;28;20073;-76
2023/05/10 05:08:50;;;;;;;56.28;53.65;;;;;;;12.76;90.65;97540.69;4940649;28;20407;-77
2023/05/10 05:11:16;;;;;;;55.17;52.67;;;;;;;12.74;90.61;97538.22;4940592;28;20034;-75
2023/05/10 05:13:41;;;;;;;56.42;53.92;;;;;;;12.68;91.03;97533.94;4963533;28;20484;-77
2023/05/10 05:16:06;;;;;;;55.42;52.83;;;;;;;12.86;89.90;97546.06;4982085;28;20037;-74
2023/05/10 05:18:32;;;;;;;55.60;53.08;;;;;;;12.92;89.37;97545.78;4978500;28;20546;-76
2023/05/10 05:20:57;;;;;;;55.90;53.40;;;;;;;12.68;90.16;97552.03;4955477;28;20034;-75
2023/05/10 05:23:24;;;;;;;55.35;52.95;;;;;;;12.76;89.94;97557.72;4961059;28;20114;-75
2023/05/10 05:25:52;;;;;;;56.53;54.13;;;;;;;12.93;89.36;97554.66;4955373;28;20029;-76
2023/05/10 05:28:17;;;;;;;57.75;55.25;;;;;;;12.92;89.59;97571.97;4937057;28;20143;-76
2023/05/10 05:30:43;;;;;;;63.22;59.60;;;;;;;13.11;89.07;97570.34;4955221;28;20035;-76
2023/05/10 05:33:08;;;;;;;55.75;53.35;;;;;;;12.91;89.01;97573.06;4960894;28;20043;-76
2023/05/10 05:35:33;;;;;;;71.60;66.45;;;;;;;12.90;90.47;97576.84;4936047;29;20027;-76
2023/05/10 05:37:59;;;;;;;74.38;68.80;;;;;;;12.89;88.71;97567.09;4949039;28;20042;-76
2023/05/10 05:40:25;;;;;;;66.03;62.22;;;;;;;13.02;90.10;97571.97;4923173;29;20106;-75
2023/05/10 05:42:50;;;;;;;73.35;67.72;;;;;;;13.00;89.29;97574.09;4955187;28;20121;-75
2023/05/10 05:45:16;;;;;;;62.25;58.85;;;;;;;13.08;88.31;97570.88;4938885;28;20022;-75
2023/05/10 05:47:41;;;;;;;64.35;60.25;;;;;;;12.97;88.73;97570.09;4939026;28;20066;-75
2023/05/10 05:50:07;;;;;;;54.58;52.08;;;;;;;13.09;88.83;97583.31;4939512;28;20026;-75
2023/05/10 05:52:32;;;;;;;55.65;53.20;;;;;;;13.04;88.49;97586.00;4958740;28;20142;-75
2023/05/10 05:54:58;;;;;;;57.95;55.40;;;;;;;13.28;87.51;97586.22;4945640;28;20035;-72
2023/05/10 05:57:23;;;;;;;56.45;54.05;;;;;;;13.33;87.23;97584.28;4976034;28;20046;-75
2023/05/10 05:59:48;;;;;;;56.78;54.17;;;;;;;13.25;87.43;97594.88;4958537;28;20102;-75
2023/05/10 06:02:14;;;;;;;54.92;52.33;;;;;;;13.17;87.70;97596.25;4965648;28;20070;-75
2023/05/10 06:04:39;;;;;;;57.00;54.30;;;;;;;12.90;87.83;97596.59;4963261;28;20037;-76
2023/05/10 06:07:05;;;;;;;59.20;56.40;;;;;;;13.00;87.64;97609.25;4947375;28;20493;-78
2023/05/10 06:09:30;;;;;;;56.67;54.08;;;;;;;13.21;86.49;97602.72;4946892;28;20025;-78
2023/05/10 06:11:56;;;;;;;54.80;52.20;;;;;;;13.27;87.43;97598.94;4941697;29;20031;-76
2023/05/10 06:14:21;;;;;;;54.60;52.22;;;;;;;13.40;86.91;97606.44;4976161;28;20473;-76
2023/05/10 06:16:47;;;;;;;55.17;52.58;;;;;;;13.61;86.56;97607.97;4945703;28;20038;-77
2023/05/10 06:19:12;;;;;;;56.65;54.25;;;;;;;13.40;86.31;97600.22;4961920;28;20030;-77
2023/05/10 06:21:38;;;;;;;55.33;52.92;;;;;;;13.45;85.27;97608.31;4942016;29;20139;-76
2023/05/10 06:24:03;;;;;;;55.22;52.75;;;;;;;13.65;85.38;97609.03;4926035;29;20108;-77
2023/05/10 06:26:28;;;;;;;54.80;52.33;;;;;;;13.64;85.74;97618.25;4961535;28;20093;-77
2023/05/10 06:28:54;;;;;;;54.17;51.88;;;;;;;13.38;85.80;97624.03;4941534;29;20035;-77
2023/05/10 06:31:19;;;;;;;55.40;52.88;;;;;;;13.51;84.76;97629.66;4952560;28;20388;-76
2023/05/10 06:33:45;;;;;;;54.08;51.78;;;;;;;13.38;85.99;97627.56;4929643;28;20050;-77
2023/05/10 06:36:10;;;;;;;53.38;50.97;;;;;;;13.32;84.60;97631.38;4946411;28;20043;-77
2023/05/10 06:38:36;;;;;;;55.75;53.25;;;;;;;13.37;84.92;97633.25;4961193;28;20058;-77
2023/05/10 06:41:01;;;;;;;53.72;51.42;;;;;;;13.38;84.35;97635.66;4960807;28;20039;-76
2023/05/10 06:43:28;;;;;;;54.08;51.67;;;;;;;13.67;84.05;97625.81;4994349;28;20042;-77
2023/05/10 06:45:53;;;;;;;54.90;52.45;;;;;;;13.61;83.77;97629.63;4994138;28;20548;-77
2023/05/10 06:48:19;;;;;;;54.30;51.90;;;;;;;13.72;84.41;97641.22;4991331;28;20106;-73
2023/05/10 06:50:44;;;;;;;55.15;52.65;;;;;;;13.52;85.49;97641.28;4992523;28;20043;-77
2023/05/10 06:53:10;;;;;;;56.17;53.58;;;;;;;13.43;84.34;97646.47;4960931;28;20095;-77
2023/05/10 06:55:35;;;;;;;54.33;52.00;;;;;;;13.59;83.22;97645.34;4945205;28;20039;-78
2023/05/10 06:58:01;;;;;;;53.25;50.95;;;;;;;13.58;84.54;97643.69;4942294;29;20437;-77
2023/05/10 07:00:27;;;;;;;54.38;52.08;;;;;;;13.69;82.37;97648.00;4945297;28;20050;-78
2023/05/10 07:02:52;;;;;;;52.08;49.88;;;;;;;13.84;82.54;97645.22;4959676;28;20032;-77
2023/05/10 07:05:18;;;;;;;54.42;52.10;;;;;;;14.04;82.73;97643.47;4944626;28;20146;-77
2023/05/10 07:07:43;;;;;;;50.58;48.30;;;;;;;14.01;81.10;97638.63;4944185;28;20035;-77
2023/05/10 07:10:09;;;;;;;48.58;46.65;;;;;;;14.12;80.06;97629.38;4953605;29;20123;-78
2023/05/10 07:12:34;;;;;;;46.08;44.17;;;;;;;13.81;79.99;97640.38;4977968;28;20114;-76
2023/05/10 07:15:00;;;;;;;49.25;47.15;;;;;;;13.92;81.25;97645.72;4963653;28;20067;-78
2023/05/10 07:17:25;;;;;;;48.55;46.55;;;;;;;14.06;79.68;97646.72;4963428;28;20451;-77
2023/05/10 07:19:50;;;;;;;47.25;45.35;;;;;;;14.09;79.41;97662.41;4963081;28;20045;-78
2023/05/10 07:22:16;;;;;;;29.23;28.02;;;;;;;14.09;76.76;97657.81;4957082;28;20035;-77
2023/05/10 07:24:42;;;;;;;36.63;35.22;;;;;;;14.09;78.28;97662.41;4953813;28;20491;-78
2023/05/10 07:27:07;;;;;;;32.45;31.08;;;;;;;14.22;76.65;97651.75;4970097;28;20030;-77
2023/05/10 07:29:33;;;;;;;34.38;32.97;;;;;;;14.39;78.02;97651.41;4952198;28;20143;-76
2023/05/10 07:31:58;;;;;;;38.50;37.00;;;;;;;14.48;78.72;97652.44;4961876;28;20477;-78
2023/05/10 07:34:24;;;;;;;46.58;44.67;;;;;;;14.51;78.82;97660.00;4952188;28;20058;-78
2023/05/10 07:36:49;;;;;;;40.05;38.47;;;;;;;14.46;77.10;97654.63;4947974;28;20023;-76
2023/05/10 07:39:14;;;;;;;39.00;37.40;;;;;;;14.44;77.36;97659.50;4955566;28;20519;-78
2023/05/10 07:41:40;;;;;;;29.23;27.98;;;;;;;14.62;76.00;97666.94;4961098;28;20035;-76
2023/05/10 07:44:05;;;;;;;27.63;26.52;;;;;;;14.88;74.84;97665.66;4927957;29;20039;-76
2023/05/10 07:46:31;;;;;;;28.95;27.85;;;;;;;15.08;74.66;97668.16;4937567;28;20081;-76
2023/05/10 07:48:56;;;;;;;31.13;29.83;;;;;;;14.89;75.61;97671.91;4966433;28;20539;-75
2023/05/10 07:51:22;;;;;;;27.17;25.70;;;;;;;14.86;73.91;97665.13;4940468;28;20023;-76
2023/05/10 07:53:47;;;;;;;26.27;25.17;;;;;;;14.83;74.79;97671.13;4973662;28;20046;-75
2023/05/10 07:56:29;;;;;;;21.75;20.75;;;;;;;15.02;74.29;97669.31;4973775;28;20022;-75
2023/05/10 07:58:55;;;;;;;20.67;19.88;;;;;;;15.15;73.61;97665.94;4929415;29;20417;-77
2023/05/10 08:01:20;;;;;;;16.83;15.93;;;;;;;15.08;73.43;97670.88;4954943;28;20086;-76
2023/05/10 08:03:45;;;;;;;20.13;19.33;;;;;;;15.04;74.98;97671.75;4937099;29;20437;-75
2023/05/10 08:06:11;;;;;;;11.38;10.90;;;;;;;14.80;71.83;97671.69;4940478;28;20022;-76
2023/05/10 08:08:36;;;;;;;11.07;10.60;;;;;;;14.70;73.16;97679.09;4956329;28;20046;-76
2023/05/10 08:11:02;;;;;;;19.92;19.02;;;;;;;14.87;74.57;97679.47;4969147;28;20050;-76
2023/05/10 08:13:27;;;;;;;16.50;15.85;;;;;;;15.00;73.72;97674.22;4924154;28;20077;-75
2023/05/10 08:15:53;;;;;;;21.38;20.38;;;;;;;15.24;73.41;97669.63;4975526;28;20464;-76
2023/05/10 08:18:19;;;;;;;19.48;18.38;;;;;;;15.12;73.48;97682.75;4973426;28;20043;-75
2023/05/10 08:20:44;;;;;;;25.02;24.00;;;;;;;14.97;75.98;97682.91;4940033;28;20392;-76
2023/05/10 08:23:10;;;;;;;20.42;19.63;;;;;;;14.70;74.64;97681.81;4973144;28;20085;-75
2023/05/10 08:25:35;;;;;;;25.13;24.02;;;;;;;14.69;75.72;97689.13;4973299;28;20069;-76
2023/05/10 08:28:00;;;;;;;21.75;20.75;;;;;;;14.71;74.32;97684.22;4980156;28;20047;-75
2023/05/10 08:30:26;;;;;;;15.45;14.75;;;;;;;14.83;73.54;97684.66;4951348;29;20063;-76
2023/05/10 08:32:51;;;;;;;16.13;15.43;;;;;;;14.84;72.45;97686.28;4947511;28;20039;-76
2023/05/10 08:35:16;;;;;;;15.07;14.35;;;;;;;14.73;72.30;97701.00;4942936;28;20027;-75
2023/05/10 08:37:42;;;;;;;8.35;7.97;;;;;;;14.77;70.50;97701.28;4940563;28;20121;-76
2023/05/10 08:40:09;;;;;;;11.18;10.57;;;;;;;15.09;71.35;97690.69;4951293;29;20397;-76
2023/05/10 08:42:37;;;;;;;13.38;12.75;;;;;;;14.88;72.68;97709.03;4932649;28;20038;-76
2023/05/10 08:45:03;;;;;;;13.82;13.30;;;;;;;15.20;72.17;97703.84;4958865;28;20026;-75
2023/05/10 08:47:29;;;;;;;9.40;8.93;;;;;;;15.61;70.18;97703.47;4972417;28;20397;-76
2023/05/10 08:49:54;;;;;;;13.80;13.20;;;;;;;15.66;71.53;97703.44;4946159;28;20428;-76
2023/05/10 08:52:20;;;;;;;18.33;17.35;;;;;;;15.87;72.01;97704.78;4947196;28;20042;-76
2023/05/10 08:54:46;;;;;;;13.95;13.25;;;;;;;16.09;70.06;97710.50;4950518;29;20031;-76
2023/05/10 08:57:11;;;;;;;6.20;6.00;;;;;;;15.97;69.11;97715.53;4974775;28;20518;-76
2023/05/10 08:59:39;;;;;;;5.82;5.43;;;;;;;15.63;68.65;97709.44;4986949;28;20022;-76
2023/05/10 09:02:05;;;;;;;6.25;5.95;;;;;;;15.85;69.75;97706.97;4956014;28;20039;-75
2023/05/10 09:04:31;;;;;;;4.30;4.10;;;;;;;16.39;66.83;97706.53;4939289;28;20030;-75
2023/05/10 09:06:57;;;;;;;7.35;7.05;;;;;;;16.29;69.69;97712.13;4950328;28;20046;-76
2023/05/10 09:09:23;;;;;;;11.85;11.35;;;;;;;16.28;70.77;97711.31;4966947;28;20101;-75
2023/05/10 09:11:49;;;;;;;10.77;10.23;;;;;;;16.22;69.41;97712.47;4955565;28;20053;-75
2023/05/10 09:14:15;;;;;;;5.18;4.97;;;;;;;16.39;67.65;97717.41;4955154;28;20098;-75
2023/05/10 09:16:41;;;;;;;5.00;4.80;;;;;;;16.10;68.23;97719.44;4955456;28;20058;-76
2023/05/10 09:19:08;;;;;;;8.50;8.10;;;;;;;15.61;69.94;97727.91;4939676;28;20030;-77
2023/05/10 09:21:37;;;;;;;8.35;7.78;;;;;;;15.63;70.58;97726.53;4955640;28;20086;-77
2023/05/10 09:24:04;;;;;;;9.75;9.15;;;;;;;15.34;71.23;97727.59;4974031;28;20485;-77
2023/05/10 09:26:30;;;;;;;10.40;9.90;;;;;;;15.18;72.12;97719.63;4965824;28;20035;-76
2023/05/10 09:28:57;;;;;;;15.40;14.70;;;;;;;15.00;71.97;97735.78;4954331;29;20082;-77
2023/05/10 09:31:23;;;;;;;24.00;23.00;;;;;;;14.82;74.97;97734.56;4935911;28;20054;-76
2023/05/10 09:33:49;;;;;;;25.58;24.55;;;;;;;14.73;74.08;97738.13;4959305;28;20031;-77
2023/05/10 09:36:15;;;;;;;28.30;27.10;;;;;;;14.75;75.00;97739.47;4959425;28;20046;-76
2023/05/10 09:38:51;;;;;;;30.88;29.58;;;;;;;14.63;76.26;97739.03;4959589;28;20125;-76
2023/05/10 09:41:23;;;;;;;32.40;30.92;;;;;;;14.63;75.38;97738.22;4959119;28;20031;-76
2023/05/10 09:43:49;;;;;;;40.22;38.63;;;;;;;14.59;76.61;97746.09;4946524;28;20051;-76
2023/05/10 09:46:16;;;;;;;40.78;39.08;;;;;;;14.82;76.69;97742.69;4975689;28;20473;-76
2023/05/10 09:48:43;;;;;;;34.50;33.00;;;;;;;15.15;73.63;97747.31;4946962;28;20047;-77
2023/05/10 09:51:08;;;;;;;30.50;29.17;;;;;;;15.24;74.62;97744.78;4957714;28;20404;-76
2023/05/10 09:53:33;;;;;;;31.80;30.20;;;;;;;15.32;74.61;97751.50;4963706;28;20039;-76
2023/05/10 09:55:59;;;;;;;26.45;25.30;;;;;;;15.45;73.28;97745.44;4980650;28;20039;-76
2023/05/10 09:58:24;;;;;;;24.73;23.70;;;;;;;15.38;73.90;97747.66;4958821;28;20041;-76
2023/05/10 10:00:53;;;;;;;27.55;26.45;;;;;;;15.46;73.52;97736.19;4958663;28;20432;-77
2023/05/10 10:03:22;;;;;;;23.17;22.17;;;;;;;15.94;72.01;97748.69;4950985;29;20041;-77
2023/05/10 10:05:48;;;;;;;21.38;20.38;;;;;;;16.31;70.89;97743.31;4977094;28;20600;-77
2023/05/10 10:08:14;;;;;;;16.48;15.57;;;;;;;16.59;69.29;97741.66;4942531;28;20035;-76
2023/05/10 10:10:40;;;;;;;10.20;9.70;;;;;;;16.62;69.19;97743.75;4974409;28;20030;-77
2023/05/10 10:13:05;;;;;;;10.57;10.00;;;;;;;16.73;69.25;97739.00;4926208;28;20421;-76
2023/05/10 10:15:32;;;;;;;10.35;9.75;;;;;;;16.92;68.97;97734.34;4956095;28;20037;-77
2023/05/10 10:17:58;;;;;;;18.88;17.98;;;;;;;16.55;71.51;97744.13;4931933;28;20046;-76
2023/05/10 10:20:24;;;;;;;16.02;15.32;;;;;;;16.53;70.78;97735.47;4978431;28;20030;-77
2023/05/10 10:22:50;;;;;;;16.77;15.98;;;;;;;16.81;70.54;97741.84;4958146;28;20041;-77
2023/05/10 10:25:16;;;;;;;21.02;20.02;;;;;;;16.91;69.68;97735.44;4940392;28;20027;-76
2023/05/10 10:27:51;;;;;;;7.00;6.57;;;;;;;17.15;67.02;97739.66;4936414;28;20441;-78
2023/05/10 10:30:29;;;;;;;8.27;7.63;;;;;;;17.91;65.70;97736.41;4963142;28;20039;-78
2023/05/10 10:33:13;;;;;;;4.20;3.90;;;;;;;16.95;65.49;97740.00;4939002;28;20089;-77
2023/05/10 10:35:39;;;;;;;3.70;3.40;;;;;;;17.15;64.61;97730.69;4966034;28;20138;-77
2023/05/10 10:38:07;;;;;;;5.30;4.88;;;;;;;16.78;68.57;97730.75;4961763;28;20027;-76
2023/05/10 10:40:33;;;;;;;2.72;2.53;;;;;;;16.91;64.93;97725.38;4942427;28;20034;-76
2023/05/10 10:43:25;;;;;;;3.70;3.13;;;;;;;16.77;66.00;97726.41;4929243;28;20035;-76
2023/05/10 10:46:13;;;;;;;5.65;5.35;;;;;;;16.51;68.79;97732.22;4973932;28;20066;-72
2023/05/10 10:48:39;;;;;;;6.93;6.43;;;;;;;16.15;69.67;97733.75;4962826;28;20053;-77
2023/05/10 10:51:04;;;;;;;5.05;4.85;;;;;;;16.39;67.58;97723.66;4957403;28;20023;-77
2023/05/10 10:53:30;;;;;;;6.43;6.13;;;;;;;16.02;69.17;97729.06;4944494;28;20477;-77
2023/05/10 10:56:09;;;;;;;7.00;6.70;;;;;;;15.99;70.68;97729.63;4962164;28;20113;-77
2023/05/10 10:58:37;;;;;;;11.85;11.05;;;;;;;16.11;70.65;97740.88;4957639;28;20038;-77
2023/05/10 11:01:16;;;;;;;9.35;8.88;;;;;;;16.19;69.58;97729.38;4957409;28;20050;-78
2023/05/10 11:03:58;;;;;;;11.57;11.07;;;;;;;16.17;70.99;97739.75;4938135;29;20496;-77
2023/05/10 11:06:34;;;;;;;5.53;4.82;;;;;;;16.17;67.59;97737.03;4969790;28;20125;-75
2023/05/10 11:09:11;;;;;;;4.50;4.20;;;;;;;16.46;66.78;97736.88;4957564;28;20038;-75
2023/05/10 11:11:48;;;;;;;4.60;4.38;;;;;;;16.32;67.37;97734.09;4922312;29;20670;-75
2023/05/10 11:14:13;;;;;;;3.88;3.58;;;;;;;16.40;66.40;97729.91;4942691;28;20042;-75
2023/05/10 11:16:43;;;;;;;9.77;5.38;;;;;;;16.47;66.99;97735.78;4957180;28;20033;-76
2023/05/10 11:19:11;;;;;;;5.03;4.65;;;;;;;16.48;67.84;97727.34;4940750;28;20041;-76
2023/05/10 11:22:05;;;;;;;4.65;3.40;;;;;;;16.35;66.96;97738.94;4956110;28;20047;-75